Time,TemperatureF,DewpointF,PressureIn,WindDirection,WindDirectionDegrees,WindSpeedMPH,WindSpeedGustMPH,Humidity,HourlyPrecipIn,Conditions,Clouds,dailyrainin,SoftwareType,DateUTC
2013-04-29 00:02:00,55.9,48.4,29.73,SE,125,6.0,6.0,76,0.00,,,0.00,Wunderground v.1.15,2013-04-29 04:02:00,
2013-04-29 00:07:00,56.0,48.5,29.73,ESE,113,5.0,7.0,76,0.00,,,0.00,Wunderground v.1.15,2013-04-29 04:07:00,
2013-04-29 00:12:00,56.0,48.5,29.73,SE,138,6.0,6.0,76,0.00,,,0.00,Wunderground v.1.15,2013-04-29 04:12:00,
2013-04-29 00:16:00,56.0,48.5,29.73,South,170,5.0,6.0,76,0.00,,,0.00,Wunderground v.1.15,2013-04-29 04:16:00,
2013-04-29 00:21:00,56.0,48.5,29.73,South,171,5.0,5.0,76,0.00,,,0.00,Wunderground v.1.15,2013-04-29 04:21:00,
2013-04-29 00:27:00,55.9,48.4,29.72,SSE,162,5.0,5.0,76,0.00,,,0.00,Wunderground v.1.15,2013-04-29 04:27:00,
2013-04-29 00:32:00,55.9,48.4,29.72,SSE,167,5.0,5.0,76,0.00,,,0.00,Wunderground v.1.15,2013-04-29 04:32:00,
2013-04-29 00:42:00,55.9,48.4,29.72,South,179,4.0,4.0,76,0.00,,,0.00,Wunderground v.1.15,2013-04-29 04:42:00,
2013-04-29 00:51:00,55.9,48.1,29.72,South,183,5.0,5.0,75,0.00,,,0.00,Wunderground v.1.15,2013-04-29 04:51:00,
2013-04-29 00:57:00,55.9,48.4,29.72,South,174,5.0,6.0,76,0.00,,,0.00,Wunderground v.1.15,2013-04-29 04:57:00,
2013-04-29 01:07:00,55.8,48.3,29.71,SSE,161,4.0,6.0,76,0.00,,,0.00,Wunderground v.1.15,2013-04-29 05:07:00,
2013-04-29 01:16:00,55.7,48.2,29.71,South,177,3.0,4.0,76,0.00,,,0.00,Wunderground v.1.15,2013-04-29 05:16:00,
2013-04-29 01:21:00,55.7,48.6,29.72,South,172,3.0,3.0,77,0.00,,,0.00,Wunderground v.1.15,2013-04-29 05:21:00,
2013-04-29 01:27:00,55.7,48.2,29.71,South,183,3.0,3.0,76,0.00,,,0.00,Wunderground v.1.15,2013-04-29 05:27:00,
2013-04-29 01:32:00,55.6,48.5,29.71,SSE,155,3.0,3.0,77,0.00,,,0.00,Wunderground v.1.15,2013-04-29 05:32:00,
2013-04-29 01:42:00,55.6,48.5,29.71,South,173,4.0,4.0,77,0.00,,,0.00,Wunderground v.1.15,2013-04-29 05:42:00,
2013-04-29 01:52:00,55.6,48.5,29.71,SSW,196,4.0,4.0,77,0.00,,,0.00,Wunderground v.1.15,2013-04-29 05:52:00,
2013-04-29 02:07:00,55.6,48.8,29.71,SSW,207,5.0,5.0,78,0.00,,,0.00,Wunderground v.1.15,2013-04-29 06:07:00,
2013-04-29 02:16:00,54.8,49.4,29.71,SSW,207,5.0,6.0,82,0.00,,,0.01,Wunderground v.1.15,2013-04-29 06:16:00,
2013-04-29 02:21:00,54.3,49.2,29.71,SSE,165,4.0,4.0,83,0.00,,,0.01,Wunderground v.1.15,2013-04-29 06:21:00,
2013-04-29 02:26:00,53.9,49.5,29.70,SSE,157,3.0,4.0,85,0.09,,,0.02,Wunderground v.1.15,2013-04-29 06:26:00,
2013-04-29 02:31:00,53.7,49.3,29.70,SSE,157,4.0,5.0,85,0.06,,,0.02,Wunderground v.1.15,2013-04-29 06:31:00,
2013-04-29 02:37:00,53.6,49.2,29.70,SSE,159,4.0,5.0,85,0.04,,,0.02,Wunderground v.1.15,2013-04-29 06:37:00,
2013-04-29 02:47:00,53.4,49.0,29.70,SSE,165,3.0,3.0,85,0.00,,,0.02,Wunderground v.1.15,2013-04-29 06:47:00,
2013-04-29 02:52:00,53.5,49.1,29.70,SE,140,3.0,3.0,85,0.00,,,0.02,Wunderground v.1.15,2013-04-29 06:52:00,
2013-04-29 03:01:00,53.3,48.9,29.69,SE,137,4.0,4.0,85,0.00,,,0.02,Wunderground v.1.15,2013-04-29 07:01:00,
2013-04-29 03:07:00,53.3,48.9,29.69,South,169,4.0,5.0,85,0.00,,,0.02,Wunderground v.1.15,2013-04-29 07:07:00,
2013-04-29 03:21:00,53.3,48.9,29.69,SSE,167,4.0,4.0,85,0.00,,,0.02,Wunderground v.1.15,2013-04-29 07:21:00,
2013-04-29 03:27:00,53.3,48.9,29.69,SE,128,4.0,5.0,85,0.00,,,0.02,Wunderground v.1.15,2013-04-29 07:27:00,
2013-04-29 03:37:00,53.3,48.9,29.69,SE,135,5.0,5.0,85,0.00,,,0.02,Wunderground v.1.15,2013-04-29 07:37:00,
2013-04-29 03:42:00,53.4,49.0,29.69,SSE,167,5.0,5.0,85,0.00,,,0.02,Wunderground v.1.15,2013-04-29 07:42:00,
2013-04-29 03:52:00,53.3,48.9,29.69,South,180,4.0,6.0,85,0.00,,,0.02,Wunderground v.1.15,2013-04-29 07:52:00,
2013-04-29 03:57:00,53.3,48.9,29.69,South,172,5.0,6.0,85,0.00,,,0.02,Wunderground v.1.15,2013-04-29 07:57:00,
2013-04-29 04:02:00,53.2,48.8,29.69,South,177,5.0,6.0,85,0.00,,,0.02,Wunderground v.1.15,2013-04-29 08:02:00,
2013-04-29 04:07:00,53.1,49.0,29.69,SE,144,5.0,6.0,86,0.00,,,0.02,Wunderground v.1.15,2013-04-29 08:07:00,
2013-04-29 04:17:00,53.0,48.9,29.69,South,174,4.0,8.0,86,0.00,,,0.02,Wunderground v.1.15,2013-04-29 08:17:00,
2013-04-29 04:22:00,52.9,48.8,29.69,SW,221,4.0,4.0,86,0.00,,,0.02,Wunderground v.1.15,2013-04-29 08:22:00,
2013-04-29 04:32:00,52.8,48.7,29.69,SSE,162,4.0,4.0,86,0.00,,,0.02,Wunderground v.1.15,2013-04-29 08:32:00,
2013-04-29 05:42:00,52.0,48.9,29.69,SSE,155,2.0,2.0,89,0.00,,,0.02,Wunderground v.1.15,2013-04-29 09:42:00,
2013-04-29 05:52:00,51.9,48.8,29.70,SE,146,2.0,10.0,89,0.00,,,0.02,Wunderground v.1.15,2013-04-29 09:52:00,
2013-04-29 06:07:00,51.7,48.9,29.70,SE,146,1.0,10.0,90,0.00,,,0.03,Wunderground v.1.15,2013-04-29 10:07:00,
2013-04-29 06:17:00,51.6,49.1,29.70,SE,146,1.0,1.0,91,0.00,,,0.03,Wunderground v.1.15,2013-04-29 10:17:00,
2013-04-29 06:22:00,51.6,49.1,29.70,SE,146,0.0,0.0,91,0.00,,,0.03,Wunderground v.1.15,2013-04-29 10:22:00,
2013-04-29 06:32:00,51.6,49.1,29.70,SE,146,0.0,0.0,91,0.00,,,0.03,Wunderground v.1.15,2013-04-29 10:32:00,
2013-04-29 06:42:00,51.5,49.3,29.70,SE,146,0.0,0.0,92,0.00,,,0.03,Wunderground v.1.15,2013-04-29 10:42:00,
2013-04-29 06:52:00,51.5,49.3,29.71,SE,146,0.0,1.0,92,0.00,,,0.03,Wunderground v.1.15,2013-04-29 10:52:00,
2013-04-29 07:02:00,51.6,49.4,29.71,SE,146,0.0,0.0,92,0.00,,,0.03,Wunderground v.1.15,2013-04-29 11:02:00,
2013-04-29 07:07:00,51.7,49.7,29.71,SE,146,0.0,0.0,93,0.00,,,0.03,Wunderground v.1.15,2013-04-29 11:07:00,
2013-04-29 07:17:00,51.8,49.8,29.71,SE,146,0.0,1.0,93,0.00,,,0.03,Wunderground v.1.15,2013-04-29 11:17:00,
2013-04-29 07:22:00,51.8,49.8,29.71,SE,146,0.0,0.0,93,0.00,,,0.03,Wunderground v.1.15,2013-04-29 11:22:00,
2013-04-29 07:32:00,52.0,50.0,29.71,SE,146,0.0,0.0,93,0.00,,,0.03,Wunderground v.1.15,2013-04-29 11:32:00,
2013-04-29 07:37:00,52.2,50.2,29.71,SE,146,0.0,0.0,93,0.00,,,0.03,Wunderground v.1.15,2013-04-29 11:37:00,
2013-04-29 07:52:00,52.9,50.3,29.71,SSE,159,2.0,2.0,91,0.00,,,0.03,Wunderground v.1.15,2013-04-29 11:52:00,
2013-04-29 07:57:00,53.2,50.3,29.71,South,172,2.0,2.0,90,0.00,,,0.03,Wunderground v.1.15,2013-04-29 11:57:00,
2013-04-29 08:02:00,53.5,50.6,29.71,South,172,2.0,2.0,90,0.00,,,0.03,Wunderground v.1.15,2013-04-29 12:02:00,
2013-04-29 08:07:00,53.8,50.9,29.71,South,172,1.0,2.0,90,0.00,,,0.03,Wunderground v.1.15,2013-04-29 12:07:00,
2013-04-29 08:17:00,54.3,51.1,29.71,South,172,1.0,2.0,89,0.00,,,0.03,Wunderground v.1.15,2013-04-29 12:17:00,
2013-04-29 08:22:00,54.6,51.4,29.71,South,172,1.0,1.0,89,0.00,,,0.03,Wunderground v.1.15,2013-04-29 12:22:00,
2013-04-29 08:37:00,55.4,51.6,29.71,South,172,0.0,0.0,87,0.00,,,0.03,Wunderground v.1.15,2013-04-29 12:37:00,
2013-04-29 08:47:00,55.9,51.8,29.72,South,172,0.0,0.0,86,0.00,,,0.03,Wunderground v.1.15,2013-04-29 12:47:00,
2013-04-29 08:57:00,56.4,51.9,29.72,South,172,0.0,0.0,85,0.00,,,0.03,Wunderground v.1.15,2013-04-29 12:57:00,
2013-04-29 09:02:00,56.6,51.8,29.72,South,172,0.0,0.0,84,0.00,,,0.03,Wunderground v.1.15,2013-04-29 13:02:00,
2013-04-29 09:07:00,56.8,51.7,29.72,SSW,196,0.0,2.0,83,0.00,,,0.03,Wunderground v.1.15,2013-04-29 13:07:00,
2013-04-29 09:17:00,57.5,51.4,29.72,South,175,3.0,4.0,80,0.00,,,0.03,Wunderground v.1.15,2013-04-29 13:17:00,
2013-04-29 09:22:00,57.6,51.1,29.72,SSW,201,5.0,5.0,79,0.00,,,0.03,Wunderground v.1.15,2013-04-29 13:22:00,
2013-04-29 09:32:00,57.6,50.8,29.72,SSE,168,4.0,4.0,78,0.00,,,0.03,Wunderground v.1.15,2013-04-29 13:32:00,
2013-04-29 09:37:00,57.6,50.8,29.72,South,188,3.0,4.0,78,0.00,,,0.03,Wunderground v.1.15,2013-04-29 13:37:00,
2013-04-29 09:47:00,57.5,50.7,29.72,SSW,200,4.0,4.0,78,0.00,,,0.03,Wunderground v.1.15,2013-04-29 13:47:00,
2013-04-29 09:57:00,57.5,50.7,29.72,SSW,206,3.0,3.0,78,0.00,,,0.03,Wunderground v.1.15,2013-04-29 13:57:00,
2013-04-29 10:08:00,57.6,51.1,29.72,South,180,2.0,3.0,79,0.00,,,0.03,Wunderground v.1.15,2013-04-29 14:08:00,
2013-04-29 10:17:00,57.8,51.7,29.72,SSE,156,1.0,4.0,80,0.00,,,0.03,Wunderground v.1.15,2013-04-29 14:17:00,
2013-04-29 10:27:00,58.2,51.7,29.73,SSE,167,2.0,2.0,79,0.00,,,0.03,Wunderground v.1.15,2013-04-29 14:27:00,
2013-04-29 10:37:00,58.5,52.4,29.72,South,178,2.0,2.0,80,0.00,,,0.03,Wunderground v.1.15,2013-04-29 14:37:00,
2013-04-29 10:42:00,58.8,52.6,29.72,SSW,199,2.0,4.0,80,0.00,,,0.03,Wunderground v.1.15,2013-04-29 14:42:00,
2013-04-29 10:47:00,59.3,52.1,29.72,South,189,4.0,5.0,77,0.00,,,0.03,Wunderground v.1.15,2013-04-29 14:47:00,
2013-04-29 10:52:00,59.6,52.0,29.72,SSW,211,6.0,6.0,76,0.00,,,0.03,Wunderground v.1.15,2013-04-29 14:52:00,
2013-04-29 10:57:00,59.8,52.2,29.72,South,184,6.0,6.0,76,0.00,,,0.03,Wunderground v.1.15,2013-04-29 14:57:00,
2013-04-29 11:07:00,60.0,52.4,29.72,South,191,4.0,5.0,76,0.00,,,0.03,Wunderground v.1.15,2013-04-29 15:07:00,
2013-04-29 11:22:00,60.1,52.5,29.72,South,187,5.0,6.0,76,0.00,,,0.03,Wunderground v.1.15,2013-04-29 15:22:00,
2013-04-29 11:27:00,60.2,52.6,29.73,SW,219,5.0,6.0,76,0.00,,,0.03,Wunderground v.1.15,2013-04-29 15:27:00,
2013-04-29 11:37:00,60.3,52.7,29.73,SSW,211,5.0,5.0,76,0.00,,,0.03,Wunderground v.1.15,2013-04-29 15:37:00,
2013-04-29 11:42:00,60.3,52.7,29.73,SSW,201,5.0,5.0,76,0.00,,,0.03,Wunderground v.1.15,2013-04-29 15:42:00,
2013-04-29 11:52:00,60.4,52.8,29.73,SSE,160,5.0,5.0,76,0.00,,,0.03,Wunderground v.1.15,2013-04-29 15:52:00,
2013-04-29 11:57:00,60.4,52.8,29.73,SW,220,4.0,5.0,76,0.00,,,0.03,Wunderground v.1.15,2013-04-29 15:57:00,
2013-04-29 12:07:00,60.4,52.4,29.73,South,180,5.0,10.0,75,0.00,,,0.03,Wunderground v.1.15,2013-04-29 16:07:00,
2013-04-29 12:17:00,60.6,52.6,29.73,South,182,5.0,6.0,75,0.00,,,0.03,Wunderground v.1.15,2013-04-29 16:17:00,
2013-04-29 12:22:00,60.9,53.3,29.72,SSE,159,4.0,5.0,76,0.00,,,0.03,Wunderground v.1.15,2013-04-29 16:22:00,
2013-04-29 12:32:00,61.3,52.9,29.72,SSE,163,5.0,5.0,74,0.00,,,0.03,Wunderground v.1.15,2013-04-29 16:32:00,
2013-04-29 12:42:00,61.8,54.2,29.72,South,189,5.0,5.0,76,0.00,,,0.03,Wunderground v.1.15,2013-04-29 16:42:00,
2013-04-29 12:47:00,62.1,54.1,29.72,South,179,4.0,5.0,75,0.00,,,0.03,Wunderground v.1.15,2013-04-29 16:47:00,
2013-04-29 12:57:00,61.9,53.1,29.72,SSE,161,4.0,5.0,73,0.00,,,0.03,Wunderground v.1.15,2013-04-29 16:57:00,
2013-04-29 13:08:00,61.8,53.4,29.72,SSE,159,4.0,4.0,74,0.00,,,0.03,Wunderground v.1.15,2013-04-29 17:08:00,
2013-04-29 13:17:00,61.8,54.2,29.72,South,190,4.0,5.0,76,0.00,,,0.03,Wunderground v.1.15,2013-04-29 17:17:00,
2013-04-29 13:22:00,61.7,53.7,29.72,South,190,4.0,4.0,75,0.00,,,0.03,Wunderground v.1.15,2013-04-29 17:22:00,
2013-04-29 13:27:00,61.7,53.7,29.72,South,179,4.0,4.0,75,0.00,,,0.03,Wunderground v.1.15,2013-04-29 17:27:00,
2013-04-29 13:37:00,61.7,53.3,29.72,SSE,153,4.0,4.0,74,0.00,,,0.03,Wunderground v.1.15,2013-04-29 17:37:00,
2013-04-29 13:47:00,62.1,53.3,29.72,South,173,4.0,5.0,73,0.00,,,0.03,Wunderground v.1.15,2013-04-29 17:47:00,
2013-04-29 13:52:00,62.4,54.0,29.72,South,179,3.0,3.0,74,0.00,,,0.03,Wunderground v.1.15,2013-04-29 17:52:00,
2013-04-29 13:57:00,62.7,53.9,29.72,South,184,2.0,5.0,73,0.00,,,0.03,Wunderground v.1.15,2013-04-29 17:57:00,
2013-04-29 14:12:00,63.8,54.6,29.71,SSE,159,2.0,2.0,72,0.00,,,0.03,Wunderground v.1.15,2013-04-29 18:12:00,
2013-04-29 14:17:00,64.0,54.4,29.71,East,82,3.0,3.0,71,0.00,,,0.03,Wunderground v.1.15,2013-04-29 18:17:00,
2013-04-29 14:27:00,64.0,54.8,29.72,South,185,2.0,3.0,72,0.00,,,0.03,Wunderground v.1.15,2013-04-29 18:27:00,
2013-04-29 14:37:00,64.3,54.3,29.71,SSW,197,3.0,3.0,70,0.00,,,0.03,Wunderground v.1.15,2013-04-29 18:37:00,
2013-04-29 14:42:00,64.4,54.8,29.72,South,183,3.0,4.0,71,0.00,,,0.03,Wunderground v.1.15,2013-04-29 18:42:00,
2013-04-29 14:47:00,64.5,54.5,29.72,South,181,3.0,4.0,70,0.00,,,0.03,Wunderground v.1.15,2013-04-29 18:47:00,
2013-04-29 14:57:00,64.3,53.9,29.72,SSE,161,2.0,4.0,69,0.00,,,0.03,Wunderground v.1.15,2013-04-29 18:57:00,
2013-04-29 15:07:00,64.4,54.0,29.71,SE,146,2.0,3.0,69,0.00,,,0.03,Wunderground v.1.15,2013-04-29 19:07:00,
2013-04-29 15:17:00,64.4,54.4,29.71,ESE,113,2.0,3.0,70,0.00,,,0.03,Wunderground v.1.15,2013-04-29 19:17:00,
2013-04-29 15:27:00,64.5,54.1,29.71,ESE,113,2.0,4.0,69,0.00,,,0.03,Wunderground v.1.15,2013-04-29 19:27:00,
2013-04-29 15:37:00,64.5,54.5,29.71,ESE,113,1.0,2.0,70,0.00,,,0.03,Wunderground v.1.15,2013-04-29 19:37:00,
2013-04-29 15:42:00,64.6,54.2,29.71,ESE,113,0.0,0.0,69,0.00,,,0.03,Wunderground v.1.15,2013-04-29 19:42:00,
2013-04-29 15:47:00,64.7,54.3,29.71,ESE,113,0.0,0.0,69,0.00,,,0.03,Wunderground v.1.15,2013-04-29 19:47:00,
2013-04-29 15:57:00,64.7,54.7,29.71,ESE,113,1.0,1.0,70,0.00,,,0.03,Wunderground v.1.15,2013-04-29 19:57:00,
2013-04-29 16:07:00,64.6,55.0,29.71,ESE,113,0.0,1.0,71,0.00,,,0.03,Wunderground v.1.15,2013-04-29 20:07:00,
2013-04-29 16:17:00,64.4,54.8,29.71,East,95,1.0,1.0,71,0.00,,,0.03,Wunderground v.1.15,2013-04-29 20:17:00,
2013-04-29 16:27:00,64.0,55.2,29.70,ENE,61,2.0,2.0,73,0.00,,,0.03,Wunderground v.1.15,2013-04-29 20:27:00,
2013-04-29 16:37:00,63.4,55.0,29.70,North,5,4.0,5.0,74,0.00,,,0.03,Wunderground v.1.15,2013-04-29 20:37:00,
2013-04-29 16:47:00,63.1,54.7,29.70,NE,43,3.0,4.0,74,0.00,,,0.03,Wunderground v.1.15,2013-04-29 20:47:00,
2013-04-29 16:52:00,63.2,54.8,29.70,NE,43,3.0,3.0,74,0.00,,,0.03,Wunderground v.1.15,2013-04-29 20:52:00,
2013-04-29 17:02:00,63.5,54.7,29.70,ENE,62,3.0,3.0,73,0.00,,,0.03,Wunderground v.1.15,2013-04-29 21:02:00,
2013-04-29 17:07:00,63.8,55.4,29.70,ENE,59,3.0,3.0,74,0.00,,,0.03,Wunderground v.1.15,2013-04-29 21:07:00,
2013-04-29 17:17:00,64.3,55.1,29.70,NE,51,2.0,3.0,72,0.00,,,0.03,Wunderground v.1.15,2013-04-29 21:17:00,
2013-04-29 17:27:00,64.5,55.3,29.70,NE,51,2.0,3.0,72,0.00,,,0.03,Wunderground v.1.15,2013-04-29 21:27:00,
2013-04-29 17:37:00,64.8,55.6,29.71,NE,51,2.0,2.0,72,0.00,,,0.03,Wunderground v.1.15,2013-04-29 21:37:00,
2013-04-29 17:47:00,64.6,55.4,29.71,NE,41,3.0,4.0,72,0.00,,,0.03,Wunderground v.1.15,2013-04-29 21:47:00,
2013-04-29 17:57:00,63.9,54.7,29.71,NE,37,3.0,3.0,72,0.00,,,0.03,Wunderground v.1.15,2013-04-29 21:57:00,
2013-04-29 18:07:00,63.3,54.9,29.71,NE,37,3.0,3.0,74,0.00,,,0.03,Wunderground v.1.15,2013-04-29 22:07:00,
2013-04-29 18:17:00,63.1,54.7,29.71,NE,37,2.0,3.0,74,0.00,,,0.03,Wunderground v.1.15,2013-04-29 22:17:00,
2013-04-29 18:27:00,62.7,54.3,29.71,NE,37,2.0,2.0,74,0.00,,,0.03,Wunderground v.1.15,2013-04-29 22:27:00,
2013-04-29 18:32:00,62.6,54.6,29.71,NE,37,1.0,1.0,75,0.00,,,0.03,Wunderground v.1.15,2013-04-29 22:32:00,
2013-04-29 18:37:00,62.4,54.4,29.71,NE,37,1.0,1.0,75,0.00,,,0.03,Wunderground v.1.15,2013-04-29 22:37:00,
2013-04-29 18:47:00,61.7,54.4,29.71,NE,37,1.0,1.0,77,0.00,,,0.03,Wunderground v.1.15,2013-04-29 22:47:00,
2013-04-29 18:52:00,61.4,54.1,29.71,NE,37,1.0,1.0,77,0.00,,,0.03,Wunderground v.1.15,2013-04-29 22:52:00,
2013-04-29 18:57:00,61.0,54.1,29.71,NE,37,0.0,1.0,78,0.00,,,0.03,Wunderground v.1.15,2013-04-29 22:57:00,
2013-04-29 19:07:00,60.4,53.5,29.72,NE,37,0.0,0.0,78,0.00,,,0.03,Wunderground v.1.15,2013-04-29 23:07:00,
2013-04-29 19:17:00,60.0,53.5,29.72,NE,37,0.0,0.0,79,0.00,,,0.03,Wunderground v.1.15,2013-04-29 23:17:00,
2013-04-29 19:27:00,59.3,52.8,29.72,NE,37,1.0,1.0,79,0.00,,,0.03,Wunderground v.1.15,2013-04-29 23:27:00,
2013-04-29 19:37:00,58.2,52.1,29.72,NE,37,1.0,1.0,80,0.00,,,0.03,Wunderground v.1.15,2013-04-29 23:37:00,
2013-04-29 19:42:00,57.6,51.5,29.72,NE,37,1.0,1.0,80,0.00,,,0.03,Wunderground v.1.15,2013-04-29 23:42:00,
2013-04-29 19:47:00,57.3,51.9,29.72,NE,37,0.0,1.0,82,0.00,,,0.03,Wunderground v.1.15,2013-04-29 23:47:00,
2013-04-29 19:57:00,56.6,51.5,29.72,NE,37,1.0,1.0,83,0.00,,,0.03,Wunderground v.1.15,2013-04-29 23:57:00,
2013-04-29 20:07:00,56.2,51.1,29.73,NE,37,0.0,0.0,83,0.00,,,0.03,Wunderground v.1.15,2013-04-30 00:07:00,
2013-04-29 20:17:00,55.8,50.7,29.73,NE,37,0.0,1.0,83,0.00,,,0.03,Wunderground v.1.15,2013-04-30 00:17:00,
2013-04-29 20:27:00,55.7,51.3,29.73,NE,37,0.0,0.0,85,0.00,,,0.03,Wunderground v.1.15,2013-04-30 00:27:00,
2013-04-29 20:32:00,55.6,51.2,29.74,NE,37,0.0,0.0,85,0.00,,,0.03,Wunderground v.1.15,2013-04-30 00:32:00,
2013-04-29 20:37:00,55.5,51.1,29.74,NE,37,0.0,0.0,85,0.00,,,0.03,Wunderground v.1.15,2013-04-30 00:37:00,
2013-04-29 20:47:00,55.5,51.1,29.74,NE,37,0.0,0.0,85,0.00,,,0.03,Wunderground v.1.15,2013-04-30 00:47:00,
2013-04-29 20:57:00,55.6,51.5,29.74,NE,37,0.0,0.0,86,0.00,,,0.03,Wunderground v.1.15,2013-04-30 00:57:00,
2013-04-29 21:08:00,55.8,52.0,29.75,NE,37,0.0,1.0,87,0.00,,,0.03,Wunderground v.1.15,2013-04-30 01:08:00,
2013-04-29 21:17:00,55.9,52.1,29.75,NE,37,0.0,0.0,87,0.00,,,0.03,Wunderground v.1.15,2013-04-30 01:17:00,
2013-04-29 21:27:00,56.0,52.5,29.75,NE,37,0.0,0.0,88,0.00,,,0.03,Wunderground v.1.15,2013-04-30 01:27:00,
2013-04-29 21:37:00,56.5,53.3,29.75,NE,37,1.0,2.0,89,0.00,,,0.03,Wunderground v.1.15,2013-04-30 01:37:00,
2013-04-29 21:47:00,58.1,53.9,29.76,SSW,194,2.0,3.0,86,0.00,,,0.03,Wunderground v.1.15,2013-04-30 01:47:00,
2013-04-29 21:57:00,59.7,54.2,29.76,SSW,202,3.0,3.0,82,0.00,,,0.03,Wunderground v.1.15,2013-04-30 01:57:00,
2013-04-29 22:02:00,60.2,54.0,29.75,SSW,202,3.0,3.0,80,0.00,,,0.03,Wunderground v.1.15,2013-04-30 02:02:00,
2013-04-29 22:07:00,60.4,54.2,29.76,SSW,202,2.0,3.0,80,0.00,,,0.03,Wunderground v.1.15,2013-04-30 02:07:00,
2013-04-29 22:17:00,60.5,54.3,29.76,SSW,202,2.0,2.0,80,0.00,,,0.03,Wunderground v.1.15,2013-04-30 02:17:00,
2013-04-29 22:27:00,60.4,54.2,29.76,SSW,202,2.0,3.0,80,0.00,,,0.03,Wunderground v.1.15,2013-04-30 02:27:00,
2013-04-29 22:32:00,60.4,54.2,29.76,SSW,196,3.0,6.0,80,0.00,,,0.03,Wunderground v.1.15,2013-04-30 02:32:00,
2013-04-29 22:42:00,60.4,54.2,29.76,SSW,213,4.0,4.0,80,0.00,,,0.03,Wunderground v.1.15,2013-04-30 02:42:00,
2013-04-29 22:52:00,60.1,53.9,29.76,SSW,200,3.0,3.0,80,0.00,,,0.03,Wunderground v.1.15,2013-04-30 02:52:00,
2013-04-29 23:02:00,59.9,54.1,29.76,SSW,198,3.0,3.0,81,0.00,,,0.03,Wunderground v.1.15,2013-04-30 03:02:00,
2013-04-29 23:07:00,59.8,54.0,29.76,SSW,198,3.0,3.0,81,0.00,,,0.03,Wunderground v.1.15,2013-04-30 03:07:00,
2013-04-29 23:17:00,59.7,53.9,29.76,SSW,204,3.0,4.0,81,0.00,,,0.03,Wunderground v.1.15,2013-04-30 03:17:00,
2013-04-29 23:27:00,59.7,53.9,29.76,SSW,204,2.0,3.0,81,0.00,,,0.03,Wunderground v.1.15,2013-04-30 03:27:00,
2013-04-29 23:32:00,59.7,54.2,29.76,SSW,204,2.0,2.0,82,0.00,,,0.03,Wunderground v.1.15,2013-04-30 03:32:00,
2013-04-29 23:37:00,59.6,54.1,29.76,SSW,199,2.0,3.0,82,0.00,,,0.03,Wunderground v.1.15,2013-04-30 03:37:00,
2013-04-29 23:47:00,59.7,53.9,29.76,SSE,163,2.0,3.0,81,0.00,,,0.03,Wunderground v.1.15,2013-04-30 03:47:00,
2013-04-29 23:57:00,59.7,53.9,29.76,South,171,2.0,3.0,81,0.00,,,0.03,Wunderground v.1.15,2013-04-30 03:57:00,